Flight Track Log - Related Links

Times and Time Zones

All times are in EDT time to prevent confusion due to time zone crossing. See the UPS1269 flight status page for this flight to view local times or setup timezone preferences in your user account.

Time Position Orientation Groundspeed Altitude Reporting Facility
EDT Latitude Longitude Course Direction KTS MPH feet Rate Location/Type
Mon 11:32:54 PM 36.1286 -80.0361 308° West 188 216 5,800  Level Atlanta Center
Mon 11:33:54 PM 36.1794 -80.1236 306° West 253 291 9,800 3,000 Climbing Atlanta Center
Mon 11:34:54 PM 36.2322 -80.2086 308° West 282 325 11,800 2,050 Climbing Atlanta Center
Mon 11:35:54 PM 36.2939 -80.3164 305° West 341 392 13,900 2,260 Climbing Atlanta Center
Mon 11:37:00 PM 36.4550 -80.5874 296° West  Level FlightAware Approximate
Mon 11:38:00 PM 36.5195 -80.6911 308° West  Level FlightAware Approximate
Mon 11:41:19 PM 36.5410 -81.0510 305° West 465 535 26,300  Level FlightAware ADS-B
Mon 11:42:04 PM 36.5790 -81.1750 291° West 463 533 28,100 2,351 Climbing FlightAware ADS-B
Mon 11:42:33 PM 36.6016 -81.2498 291° West 458 527 29,200 2,000 Climbing FlightAware ADS-B
Mon 11:43:31 PM 36.6430 -81.3850 291° West 457 526 31,000 1,890 Climbing FlightAware ADS-B
Mon 11:43:46 PM 36.6564 -81.4318 290° West 458 527 31,500 652 Climbing FlightAware ADS-B
Mon 11:45:03 PM 36.7136 -81.6198 291° West 460 529 32,000 222 Climbing FlightAware ADS-B
Mon 11:45:34 PM 36.7364 -81.6964 290° West 458 527 31,900 -92 Descending FlightAware ADS-B
Mon 11:46:08 PM 36.7614 -81.7802 290° West 455 524 31,900  Level FlightAware ADS-B
Mon 11:46:39 PM 36.7842 -81.8564 291° West 455 524 31,900  Level FlightAware ADS-B
Mon 11:47:09 PM 36.8063 -81.9304 290° West 456 525 31,900  Level FlightAware ADS-B
Mon 11:47:41 PM 36.8292 -82.0094 290° West 458 527 31,900  Level FlightAware ADS-B
Mon 11:48:17 PM 36.8562 -82.1012 290° West 460 529 31,900 76 Level FlightAware ADS-B
Mon 11:49:00 PM 36.8876 -82.2063 291° West 462 532 32,000 79 Climbing FlightAware ADS-B
Mon 11:49:33 PM 36.9122 -82.2915 290° West 465 535 32,000  Level FlightAware ADS-B
Mon 11:50:09 PM 36.9386 -82.3798 291° West 464 534 32,000  Level FlightAware ADS-B
Mon 11:50:39 PM 36.9606 -82.4554 290° West 464 534 32,000 -94 Level FlightAware ADS-B
Mon 11:51:13 PM 36.9856 -82.5435 290° West 465 535 31,900 -92 Descending FlightAware ADS-B
Mon 11:51:44 PM 37.0080 -82.6192 290° West 466 536 31,900 97 Level FlightAware ADS-B
Mon 11:52:15 PM 37.0312 -82.7003 290° West 465 535 32,000 97 Climbing FlightAware ADS-B
Mon 11:52:46 PM 37.0533 -82.7761 290° West 464 534 32,000  Level FlightAware ADS-B
Mon 11:53:16 PM 37.0751 -82.8518 290° West 463 533 32,000  Level FlightAware ADS-B
Mon 11:53:46 PM 37.0968 -82.9274 290° West 461 531 32,000 -100 Level FlightAware ADS-B
Mon 11:54:16 PM 37.1183 -83.0024 290° West 460 529 31,900 -97 Descending FlightAware ADS-B
Mon 11:54:48 PM 37.1410 -83.0826 290° West 459 528 31,900  Level FlightAware ADS-B
Mon 11:55:18 PM 37.1625 -83.1577 290° West 459 528 31,900  Level FlightAware ADS-B
Mon 11:55:50 PM 37.1854 -83.2403 289° West 457 526 31,900 94 Level FlightAware ADS-B
Mon 11:56:22 PM 37.2076 -83.3174 290° West 456 525 32,000  Climbing FlightAware ADS-B
Mon 11:57:08 PM 37.2400 -83.4323 290° West 455 524 31,900 -467 Descending FlightAware ADS-B
Mon 11:57:52 PM 37.2711 -83.5439 289° West 463 533 31,300 -1,680 Descending FlightAware ADS-B
Mon 11:58:23 PM 37.2941 -83.6275 289° West 482 555 29,800 -3,600 Descending FlightAware ADS-B
Mon 11:58:57 PM 37.3195 -83.7184 289° West 493 567 27,400 -3,403 Descending FlightAware ADS-B
Mon 11:59:30 PM 37.3437 -83.8041 290° West 484 557 26,000 -2,667 Descending FlightAware ADS-B
Tue 12:00:00 AM 37.3654 -83.8839 289° West 464 534 24,600 -3,211 Descending FlightAware ADS-B
Tue 12:00:41 AM 37.3935 -83.9848 289° West 461 531 22,200 -3,380 Descending FlightAware ADS-B
Tue 12:01:11 AM 37.4142 -84.0588 289° West 445 512 20,600 -2,906 Descending FlightAware ADS-B
Tue 12:01:45 AM 37.4364 -84.1409 289° West 434 499 19,100 -1,947 Descending FlightAware ADS-B
Tue 12:03:05 AM 37.4825 -84.3117 289° West 429 494 16,900 -2,000 Descending Indianapolis Center
Tue 12:04:06 AM 37.5186 -84.4519 288° West 421 484 14,400 -2,656 Descending Indianapolis Center
Tue 12:05:07 AM 37.5556 -84.5864 289° West 410 472 11,500 -2,066 Descending Indianapolis Center
Tue 12:06:08 AM 37.5903 -84.7119 289° West 388 447 10,200 -787 Descending Indianapolis Center
Tue 12:07:09 AM 37.6186 -84.8183 289° West 316 364 9,900 -1,180 Descending Indianapolis Center
Tue 12:08:10 AM 37.6472 -84.9289 288° West 285 328 7,800 -1,721 Descending Indianapolis Center
Tue 12:09:11 AM 37.6908 -85.0042 306° West 271 312 6,400 -708 Descending Indianapolis Center
Tue 12:14:57 AM 37.8690 -85.4570 306° West 257 296 3,000 -435 Descending FlightAware ADS-B
Tue 12:17:27 AM 37.9390 -85.6260 298° West 195 224 2,800 -35 Descending FlightAware ADS-B
Tue 12:17:49 AM 37.9550 -85.6420 322° Northwest 188 216 2,900 176 Climbing FlightAware ADS-B
Tue 12:18:01 AM 37.9650 -85.6470 338° Northwest 189 217 2,900  Level FlightAware ADS-B
Tue 12:18:31 AM 37.9890 -85.6580 340° North 178 205 2,900  Level FlightAware ADS-B
Tue 12:18:53 AM 38.0050 -85.6670 336° Northwest 176 203 2,900  Level FlightAware ADS-B
Tue 12:19:25 AM 38.0290 -85.6780 340° North 175 201 2,900 -400 Level FlightAware ADS-B
Tue 12:19:53 AM 38.0520 -85.6850 347° North 179 206 2,500 -840 Descending FlightAware ADS-B
Tue 12:20:15 AM 38.0690 -85.6900 347° North 168 193 2,200 -750 Descending FlightAware ADS-B
Tue 12:20:49 AM 38.0920 -85.6990 343° North 141 162 1,800 -774 Descending FlightAware ADS-B
Tue 12:21:17 AM 38.1100 -85.7050 345° North 147 169 1,400 -750 Descending FlightAware ADS-B
Tue 12:21:45 AM 38.1290 -85.7110 346° North 148 170 1,100 -750 Descending FlightAware ADS-B
Tue 12:22:13 AM 38.1470 -85.7180 343° North 144 166 700 -724 Descending FlightAware ADS-B
Tue 12:22:43 AM 38.1660 -85.7240 346° North 136 157 400 -600 Descending FlightAware ADS-B
Tue 12:23:03 AM 38.1770 -85.7280 344° North 96 110 -1,200 Descending FlightAware ADS-B
Tue 12:23:23 AM 38.1830 -85.7300 345° North 30 35  Level FlightAware ADS-B
Tue 12:23:49 AM 38.1850 -85.7320 322° Northwest 30 35  Level FlightAware ADS-B
Tue 12:26:09 AM 38.1800 -85.7420 238° Southwest 22 25  Level FlightAware ADS-B
Tue 12:26:23 AM 38.1800 -85.7440 270° West 15 17  Level FlightAware ADS-B
Tue 12:26:45 AM 38.1790 -85.7430 142° Southeast 20 23  Level FlightAware ADS-B
Tue 12:27:35 AM 38.1740 -85.7420 171° South 17 20  Level FlightAware ADS-B
Tue 12:28:18 AM 38.1710 -85.7410 165° South 17 20  Level FlightAware ADS-B
Tue 12:29:07 AM 38.1690 -85.7400 159° South 19 22  Level FlightAware ADS-B
Tue 12:29:25 AM 38.1680 -85.7400 180° South 15 17  Level FlightAware ADS-B
Tue 12:29:49 AM 38.1660 -85.7390 159° South 17 20  Level FlightAware ADS-B
Tue 12:30:09 AM 38.1650 -85.7380 142° Southeast 28 32  Level FlightAware ADS-B

Login

Don't have an account? Register now (free) for customized features, flight alerts, and more!